createdAt,value
2018-09-12T00:01:26.562Z,100794.66
2018-09-12T00:06:33.637Z,100797.72
2018-09-12T00:11:37.225Z,100798.49
2018-09-12T00:16:45.502Z,100800.04
2018-09-12T00:21:49.203Z,100797.45
2018-09-12T00:26:52.956Z,100799.30
2018-09-12T00:31:56.679Z,100796.98
2018-09-12T00:37:00.231Z,100794.42
2018-09-12T00:42:04.049Z,100789.80
2018-09-12T00:47:07.784Z,100792.44
2018-09-12T00:52:11.339Z,100783.79
2018-09-12T00:57:14.944Z,100775.80
2018-09-12T01:02:18.598Z,100775.20
2018-09-12T01:07:22.261Z,100776.60
2018-09-12T01:12:25.876Z,100772.69
2018-09-12T01:17:29.586Z,100770.34
2018-09-12T01:22:33.237Z,100766.55
2018-09-12T01:27:36.829Z,100766.80
2018-09-12T01:32:40.435Z,100770.23
2018-09-12T01:37:44.153Z,100764.34
2018-09-12T01:42:47.789Z,100765.48
2018-09-12T01:47:51.601Z,100761.70
2018-09-12T01:52:55.257Z,100765.39
2018-09-12T01:57:58.954Z,100756.55
2018-09-12T02:03:02.664Z,100756.19
2018-09-12T02:08:06.423Z,100763.08
2018-09-12T02:13:10.124Z,100760.02
2018-09-12T02:18:13.815Z,100765.34
2018-09-12T02:23:17.577Z,100763.73
2018-09-12T02:28:22.210Z,100770.02
2018-09-12T02:33:25.943Z,100763.27
2018-09-12T02:38:30.968Z,100754.45
2018-09-12T02:43:36.371Z,100757.75
2018-09-12T02:48:40.385Z,100759.23
2018-09-12T02:53:44.279Z,100741.12
2018-09-12T02:58:48.333Z,100741.61
2018-09-12T03:03:52.244Z,100747.87
2018-09-12T03:08:55.888Z,100741.75
2018-09-12T03:13:59.482Z,100733.30
2018-09-12T03:19:03.220Z,100732.41
2018-09-12T03:24:12.004Z,100734.16
2018-09-12T03:29:15.739Z,100728.86
2018-09-12T03:34:19.689Z,100724.45
2018-09-12T03:39:23.449Z,100725.94
2018-09-12T03:44:26.952Z,100721.04
2018-09-12T03:49:30.583Z,100719.13
2018-09-12T03:54:34.182Z,100720.14
2018-09-12T03:59:37.704Z,100717.66
2018-09-12T04:04:41.180Z,100716.23
2018-09-12T04:09:44.717Z,100723.11
2018-09-12T04:14:48.166Z,100724.50
2018-09-12T04:19:51.682Z,100727.33
2018-09-12T04:24:55.238Z,100724.84
2018-09-12T04:29:58.731Z,100723.98
2018-09-12T04:35:02.287Z,100718.50
2018-09-12T04:40:06.650Z,100726.23
2018-09-12T04:45:10.172Z,100728.07
2018-09-12T04:50:13.693Z,100736.26
2018-09-12T04:55:17.236Z,100733.83
2018-09-12T05:00:20.748Z,100737.88
2018-09-12T05:05:24.271Z,100733.60
2018-09-12T05:10:27.805Z,100734.95
2018-09-12T05:15:31.349Z,100734.09
2018-09-12T05:20:34.844Z,100734.23
2018-09-12T05:25:38.365Z,100737.77
2018-09-12T05:30:41.907Z,100725.16
2018-09-12T05:35:45.379Z,100720.26
2018-09-12T05:40:48.945Z,100721.11
2018-09-12T05:45:52.442Z,100713.03
2018-09-12T05:50:55.931Z,100712.04
2018-09-12T05:55:59.508Z,100699.41
2018-09-12T06:01:02.987Z,100694.75
2018-09-12T06:06:06.559Z,100698.43
2018-09-12T06:11:10.067Z,100695.96
2018-09-12T06:16:13.549Z,100705.39
2018-09-12T06:21:17.032Z,100702.56
2018-09-12T06:26:20.542Z,100703.42
2018-09-12T06:31:24.028Z,100704.30
2018-09-12T06:36:27.483Z,100709.92
2018-09-12T06:41:30.957Z,100698.64
2018-09-12T06:46:34.412Z,100706.91
2018-09-12T06:51:37.833Z,100710.23
2018-09-12T06:56:41.280Z,100708.59
2018-09-12T07:01:44.868Z,100713.52
2018-09-12T07:06:48.336Z,100719.50
2018-09-12T07:11:51.806Z,100709.59
2018-09-12T07:16:55.293Z,100709.34
2018-09-12T07:21:58.732Z,100709.83
2018-09-12T07:27:02.173Z,100720.34
2018-09-12T07:32:05.806Z,100723.16
2018-09-12T07:37:09.252Z,100722.67
2018-09-12T07:42:12.683Z,100715.72
2018-09-12T07:47:16.122Z,100720.00
2018-09-12T07:52:19.554Z,100718.41
2018-09-12T07:57:22.987Z,100723.31
2018-09-12T08:02:26.429Z,100720.47
2018-09-12T08:07:29.882Z,100724.97
2018-09-12T08:12:33.399Z,100720.33
2018-09-12T08:17:36.810Z,100716.13
2018-09-12T08:22:40.256Z,100727.13
2018-09-12T08:27:43.701Z,100722.33
2018-09-12T08:32:47.144Z,100725.83
2018-09-12T08:37:50.569Z,100723.88
2018-09-12T08:42:54.011Z,100719.83
2018-09-12T08:47:57.447Z,100714.37
2018-09-12T08:53:00.937Z,100720.21
2018-09-12T08:58:04.377Z,100711.54
2018-09-12T09:03:08.008Z,100712.59
2018-09-12T09:08:11.671Z,100702.02
2018-09-12T09:13:15.103Z,100686.90
2018-09-12T09:18:18.538Z,100691.82
2018-09-12T09:23:22.226Z,100691.80
2018-09-12T09:28:25.763Z,100694.99
2018-09-12T09:33:29.178Z,100689.68
2018-09-12T09:38:32.586Z,100698.13
2018-09-12T09:43:36.015Z,100697.03
2018-09-12T09:48:39.498Z,100695.19
2018-09-12T09:53:43.206Z,100695.05
2018-09-12T09:58:46.651Z,100698.19
2018-09-12T10:03:55.432Z,100691.17
2018-09-12T10:09:04.825Z,100679.16
2018-09-12T10:14:08.273Z,100669.80
2018-09-12T10:19:11.710Z,100677.59
2018-09-12T10:24:15.206Z,100678.37
2018-09-12T10:29:18.618Z,100682.63
2018-09-12T10:34:22.066Z,100678.06
2018-09-12T10:39:25.584Z,100667.94
2018-09-12T10:44:29.002Z,100655.09
2018-09-12T10:49:45.189Z,100652.72
2018-09-12T10:54:48.730Z,100652.83
2018-09-12T10:59:52.169Z,100654.92
2018-09-12T11:04:55.635Z,100650.84
2018-09-12T11:09:59.069Z,100647.71
2018-09-12T11:15:02.530Z,100633.37
2018-09-12T11:20:07.378Z,100627.16
2018-09-12T11:25:10.811Z,100629.18
2018-09-12T11:30:14.248Z,100621.54
2018-09-12T11:35:17.699Z,100619.34
2018-09-12T11:40:21.128Z,100617.00
2018-09-12T11:45:24.566Z,100606.34
2018-09-12T11:50:27.991Z,100605.77
2018-09-12T11:55:31.454Z,100606.55
2018-09-12T12:00:34.918Z,100593.34
2018-09-12T12:05:38.363Z,100592.48
2018-09-12T12:10:41.794Z,100582.89
2018-09-12T12:15:45.246Z,100583.53
2018-09-12T12:20:48.732Z,100587.98
2018-09-12T12:25:52.189Z,100571.10
2018-09-12T12:30:55.625Z,100561.18
2018-09-12T12:35:59.076Z,100557.79
2018-09-12T12:41:03.065Z,100551.89
2018-09-12T12:46:06.747Z,100546.33
2018-09-12T12:51:10.298Z,100534.48
2018-09-12T12:56:14.207Z,100525.78
2018-09-12T13:01:17.980Z,100523.59
2018-09-12T13:06:22.085Z,100519.33
2018-09-12T13:11:25.821Z,100514.98
2018-09-12T13:16:29.275Z,100507.18
2018-09-12T13:21:33.311Z,100506.18
2018-09-12T13:26:36.892Z,100506.53
2018-09-12T13:31:40.633Z,100497.59
2018-09-12T13:36:49.049Z,100494.13
2018-09-12T13:41:52.500Z,100492.34
2018-09-12T13:46:55.979Z,100493.13
2018-09-12T13:51:59.424Z,100489.98
2018-09-12T13:57:02.883Z,100476.28
2018-09-12T14:02:06.374Z,100482.19
2018-09-12T14:07:09.980Z,100480.54
2018-09-12T14:12:13.446Z,100481.23
2018-09-12T14:17:16.953Z,100477.48
2018-09-12T14:22:20.481Z,100479.19
2018-09-12T14:27:23.951Z,100471.44
2018-09-12T14:32:27.398Z,100464.58
2018-09-12T14:37:30.850Z,100466.68
2018-09-12T14:42:34.275Z,100464.77
2018-09-12T14:47:37.745Z,100458.23
2018-09-12T14:52:41.176Z,100447.28
2018-09-12T14:57:44.625Z,100447.28
2018-09-12T15:02:48.102Z,100439.33
2018-09-12T15:07:51.548Z,100434.27
2018-09-12T15:12:55.003Z,100433.01
2018-09-12T15:17:58.467Z,100437.97
2018-09-12T15:23:02.080Z,100430.05
2018-09-12T15:28:05.548Z,100429.36
2018-09-12T15:33:09.090Z,100429.14
2018-09-12T15:38:12.591Z,100431.54
2018-09-12T15:43:16.092Z,100424.63
2018-09-12T15:48:19.607Z,100429.39
2018-09-12T15:53:23.044Z,100421.52
2018-09-12T15:58:26.557Z,100415.45
2018-09-12T16:03:30.116Z,100421.05
2018-09-12T16:08:33.630Z,100412.77
2018-09-12T16:13:37.092Z,100414.62
2018-09-12T16:18:40.528Z,100413.13
2018-09-12T16:23:44.022Z,100414.29
2018-09-12T16:28:47.833Z,100413.89
2018-09-12T16:33:51.432Z,100417.34
2018-09-12T16:38:54.892Z,100413.28
2018-09-12T16:43:58.331Z,100413.09
2018-09-12T16:49:01.881Z,100408.53
2018-09-12T16:54:05.368Z,100409.38
2018-09-12T16:59:08.854Z,100405.48
2018-09-12T17:04:12.355Z,100407.14
2018-09-12T17:09:15.810Z,100403.24
2018-09-12T17:14:19.979Z,100407.08
2018-09-12T17:19:23.448Z,100404.59
2018-09-12T17:24:26.963Z,100415.91
2018-09-12T17:29:30.455Z,100428.86
2018-09-12T17:34:33.931Z,100432.48
2018-09-12T17:39:37.408Z,100437.58
2018-09-12T17:44:40.870Z,100433.72
2018-09-12T17:49:44.446Z,100444.73
2018-09-12T17:54:47.983Z,100462.50
2018-09-12T17:59:51.774Z,100471.97
2018-09-12T18:04:55.408Z,100499.73
2018-09-12T18:09:58.874Z,100514.95
2018-09-12T18:15:03.110Z,100533.58
2018-09-12T18:20:06.926Z,100558.27
2018-09-12T18:25:10.399Z,100574.95
2018-09-12T18:30:14.320Z,100596.98
2018-09-12T18:35:17.809Z,100611.30
2018-09-12T18:40:21.291Z,100624.91
2018-09-12T18:45:24.757Z,100628.66
2018-09-12T18:50:28.223Z,100644.47
2018-09-12T18:55:31.871Z,100648.52
2018-09-12T19:00:35.402Z,100652.78
2018-09-12T19:05:38.894Z,100661.25
2018-09-12T19:10:42.379Z,100667.45
2018-09-12T19:15:45.846Z,100679.17
2018-09-12T19:20:49.315Z,100678.06
2018-09-12T19:25:52.758Z,100688.93
2018-09-12T19:30:56.275Z,100690.22
2018-09-12T19:35:59.793Z,100692.33
2018-09-12T19:41:03.478Z,100709.35
2018-09-12T19:46:06.933Z,100716.47
2018-09-12T19:51:15.006Z,100721.58
2018-09-12T19:56:18.468Z,100727.78
2018-09-12T20:01:21.907Z,100735.33
2018-09-12T20:06:25.360Z,100730.98
2018-09-12T20:11:28.800Z,100742.30
2018-09-12T20:16:32.246Z,100756.12
2018-09-12T20:21:35.769Z,100758.02
2018-09-12T20:26:39.244Z,100766.55
2018-09-12T20:31:42.794Z,100780.30
2018-09-12T20:36:46.325Z,100781.91
2018-09-12T20:41:49.774Z,100783.27
2018-09-12T20:52:12.427Z,100798.52
2018-09-12T20:57:15.894Z,100791.25
2018-09-12T21:02:19.363Z,100791.17
2018-09-12T21:07:23.058Z,100793.02
2018-09-12T21:12:26.594Z,100798.86
2018-09-12T21:17:30.107Z,100803.63
2018-09-12T21:22:33.601Z,100817.78
2018-09-12T21:27:37.478Z,100813.84
2018-09-12T21:32:41.047Z,100822.09
2018-09-12T21:37:44.531Z,100826.50
2018-09-12T21:42:47.987Z,100827.93
2018-09-12T21:47:51.437Z,100823.87
2018-09-12T21:52:54.907Z,100830.28
2018-09-12T21:57:58.536Z,100831.77
2018-09-12T22:03:02.060Z,100825.48
2018-09-12T22:08:05.580Z,100838.14
2018-09-12T22:13:09.027Z,100842.84
2018-09-12T22:18:12.476Z,100836.08
2018-09-12T22:23:15.936Z,100826.55
2018-09-12T22:28:19.440Z,100829.75
2018-09-12T22:33:22.985Z,100827.30
2018-09-12T22:38:26.475Z,100832.70
2018-09-12T22:43:29.976Z,100833.13
2018-09-12T22:48:33.491Z,100841.59
2018-09-12T22:53:36.992Z,100835.37
2018-09-12T22:58:40.521Z,100834.02
2018-09-12T23:03:43.991Z,100841.63
2018-09-12T23:08:47.509Z,100849.66
2018-09-12T23:13:50.939Z,100853.22
2018-09-12T23:18:54.378Z,100842.83
2018-09-12T23:23:57.829Z,100829.04
2018-09-12T23:29:01.275Z,100831.73
2018-09-12T23:34:04.732Z,100835.08
2018-09-12T23:39:10.588Z,100841.69
2018-09-12T23:44:14.037Z,100834.86
2018-09-12T23:49:17.475Z,100840.41
2018-09-12T23:54:20.962Z,100835.61
2018-09-12T23:59:24.427Z,100825.80
